CMP833 TNCC-MPTO
Flight info
| Callsign | CMP833 |
|---|---|
| Flight time | 1h 43m |
| Altitude | 34000 |
| Route | DATOR1K DATOR UL220 BAQ DCT ISIMO DCT SIROT DCT MEVID DCT OVTUL DCT BOBUD |
| Aircraft | B738/M-SDE2E3FGHIRWXY/LB1 |
Departure
| Time | 2026-04-21 19:32 |
|---|---|
| Airport | Hato International Airport (TNCC) |
Arrival
| Time | 2026-04-21 21:15 |
|---|---|
| Airport | Tocumen International Airport (MPTO) |
| Time | Latitude | Longitude | Altitude | Speed | Heading |
|---|---|---|---|---|---|
| 2026-04-21 19:18 | 12.18543 | -68.95801 | 40 ft | 0 kts | 193° |
| 2026-04-21 19:19 | 12.18552 | -68.95799 | 40 ft | 2 kts | 193° |
| 2026-04-21 19:19 | 12.18570 | -68.95795 | 40 ft | 3 kts | 193° |
| 2026-04-21 19:19 | 12.18590 | -68.95790 | 40 ft | 3 kts | 193° |
| 2026-04-21 19:20 | 12.18610 | -68.95786 | 40 ft | 3 kts | 193° |
| 2026-04-21 19:20 | 12.18630 | -68.95781 | 40 ft | 3 kts | 193° |
| 2026-04-21 19:20 | 12.18634 | -68.95780 | 40 ft | 0 kts | 193° |
| 2026-04-21 19:22 | 12.18616 | -68.95791 | 40 ft | 6 kts | 229° |
| 2026-04-21 19:23 | 12.18618 | -68.95840 | 40 ft | 7 kts | 293° |
| 2026-04-21 19:23 | 12.18638 | -68.95877 | 40 ft | 6 kts | 298° |
| 2026-04-21 19:23 | 12.18657 | -68.95913 | 40 ft | 6 kts | 298° |
| 2026-04-21 19:23 | 12.18680 | -68.95955 | 40 ft | 7 kts | 298° |
| 2026-04-21 19:24 | 12.18701 | -68.95996 | 40 ft | 7 kts | 295° |
| 2026-04-21 19:24 | 12.18719 | -68.96044 | 40 ft | 8 kts | 288° |
| 2026-04-21 19:24 | 12.18733 | -68.96093 | 40 ft | 6 kts | 284° |
| 2026-04-21 19:24 | 12.18743 | -68.96138 | 40 ft | 6 kts | 282° |
| 2026-04-21 19:25 | 12.18753 | -68.96185 | 40 ft | 7 kts | 282° |
| 2026-04-21 19:25 | 12.18762 | -68.96230 | 40 ft | 7 kts | 282° |
| 2026-04-21 19:25 | 12.18772 | -68.96277 | 40 ft | 7 kts | 282° |
| 2026-04-21 19:25 | 12.18782 | -68.96327 | 40 ft | 7 kts | 282° |
| 2026-04-21 19:26 | 12.18792 | -68.96381 | 40 ft | 7 kts | 280° |
| 2026-04-21 19:26 | 12.18800 | -68.96429 | 40 ft | 7 kts | 282° |
| 2026-04-21 19:26 | 12.18814 | -68.96475 | 40 ft | 7 kts | 289° |
| 2026-04-21 19:26 | 12.18829 | -68.96527 | 40 ft | 8 kts | 285° |
| 2026-04-21 19:27 | 12.18842 | -68.96587 | 40 ft | 9 kts | 282° |
| 2026-04-21 19:27 | 12.18855 | -68.96652 | 40 ft | 10 kts | 281° |
| 2026-04-21 19:27 | 12.18869 | -68.96726 | 40 ft | 11 kts | 281° |
| 2026-04-21 19:27 | 12.18883 | -68.96805 | 40 ft | 11 kts | 281° |
| 2026-04-21 19:28 | 12.18897 | -68.96880 | 40 ft | 10 kts | 282° |
| 2026-04-21 19:28 | 12.18913 | -68.96952 | 40 ft | 10 kts | 283° |
| 2026-04-21 19:28 | 12.18930 | -68.97026 | 40 ft | 11 kts | 283° |
| 2026-04-21 19:28 | 12.18947 | -68.97104 | 40 ft | 11 kts | 283° |
| 2026-04-21 19:29 | 12.18964 | -68.97186 | 40 ft | 12 kts | 282° |
| 2026-04-21 19:29 | 12.18981 | -68.97266 | 40 ft | 11 kts | 282° |
| 2026-04-21 19:29 | 12.18997 | -68.97342 | 40 ft | 11 kts | 282° |
| 2026-04-21 19:29 | 12.19013 | -68.97425 | 40 ft | 12 kts | 282° |
| 2026-04-21 19:30 | 12.19031 | -68.97508 | 40 ft | 10 kts | 283° |
| 2026-04-21 19:30 | 12.19053 | -68.97565 | 40 ft | 9 kts | 316° |
| 2026-04-21 19:30 | 12.19112 | -68.97574 | 40 ft | 9 kts | 5° |
| 2026-04-21 19:30 | 12.19159 | -68.97568 | 40 ft | 7 kts | 14° |
| 2026-04-21 19:31 | 12.19200 | -68.97541 | 40 ft | 7 kts | 53° |
| 2026-04-21 19:31 | 12.19210 | -68.97496 | 40 ft | 4 kts | 93° |
| 2026-04-21 19:31 | 12.19204 | -68.97457 | 40 ft | 24 kts | 99° |
| 2026-04-21 19:31 | 12.19116 | -68.97013 | 40 ft | 102 kts | 104° |
| 2026-04-21 19:32 | 12.18899 | -68.96081 | 55 ft | 164 kts | 102° |
| 2026-04-21 19:32 | 12.18635 | -68.94869 | 576 ft | 185 kts | 102° |
| 2026-04-21 19:32 | 12.18329 | -68.93551 | 1419 ft | 191 kts | 103° |
| 2026-04-21 19:32 | 12.17974 | -68.92231 | 2256 ft | 192 kts | 104° |
| 2026-04-21 19:33 | 12.17754 | -68.91334 | 2720 ft | 197 kts | 102° |
| 2026-04-21 19:33 | 12.17296 | -68.89455 | 3430 ft | 218 kts | 107° |
| 2026-04-21 19:33 | 12.16393 | -68.88147 | 3868 ft | 235 kts | 136° |
| 2026-04-21 19:33 | 12.14898 | -68.87327 | 4386 ft | 251 kts | 165° |
| 2026-04-21 19:34 | 12.13131 | -68.87233 | 5079 ft | 262 kts | 191° |
| 2026-04-21 19:34 | 12.11433 | -68.87899 | 5856 ft | 265 kts | 215° |
| 2026-04-21 19:34 | 12.10153 | -68.89218 | 6843 ft | 261 kts | 237° |
| 2026-04-21 19:34 | 12.09305 | -68.90838 | 7924 ft | 258 kts | 247° |
| 2026-04-21 19:35 | 12.08617 | -68.92561 | 8925 ft | 259 kts | 251° |
| 2026-04-21 19:35 | 12.07920 | -68.94578 | 9967 ft | 263 kts | 252° |
| 2026-04-21 19:35 | 12.07285 | -68.96623 | 10785 ft | 274 kts | 257° |
| 2026-04-21 19:36 | 12.07079 | -68.97919 | 11174 ft | 283 kts | 264° |
| 2026-04-21 19:36 | 12.07015 | -68.99967 | 11788 ft | 296 kts | 271° |
| 2026-04-21 19:36 | 12.07185 | -69.02125 | 12367 ft | 310 kts | 276° |
| 2026-04-21 19:36 | 12.07526 | -69.04347 | 12994 ft | 323 kts | 279° |
| 2026-04-21 19:37 | 12.07993 | -69.06630 | 13616 ft | 336 kts | 281° |
| 2026-04-21 19:37 | 12.08571 | -69.09005 | 14225 ft | 349 kts | 284° |
| 2026-04-21 19:37 | 12.09252 | -69.11433 | 14828 ft | 361 kts | 286° |
| 2026-04-21 19:37 | 12.10024 | -69.13940 | 15565 ft | 369 kts | 286° |
| 2026-04-21 19:38 | 12.10803 | -69.16449 | 16335 ft | 374 kts | 287° |
| 2026-04-21 19:38 | 12.11598 | -69.19000 | 17117 ft | 379 kts | 287° |
| 2026-04-21 19:38 | 12.12415 | -69.21617 | 17901 ft | 383 kts | 287° |
| 2026-04-21 19:38 | 12.13204 | -69.24141 | 18621 ft | 387 kts | 287° |
| 2026-04-21 19:39 | 12.13919 | -69.26427 | 19256 ft | 391 kts | 287° |
| 2026-04-21 19:39 | 12.14727 | -69.29007 | 19936 ft | 395 kts | 287° |
| 2026-04-21 19:39 | 12.15576 | -69.31719 | 20602 ft | 399 kts | 287° |
| 2026-04-21 19:39 | 12.16430 | -69.34446 | 21227 ft | 403 kts | 287° |
| 2026-04-21 19:40 | 12.17281 | -69.37163 | 21814 ft | 407 kts | 287° |
| 2026-04-21 19:40 | 12.18169 | -69.40003 | 22390 ft | 411 kts | 287° |
| 2026-04-21 19:40 | 12.18906 | -69.42358 | 22837 ft | 414 kts | 287° |
| 2026-04-21 19:40 | 12.19487 | -69.44220 | 23171 ft | 416 kts | 287° |
| 2026-04-21 19:41 | 12.20051 | -69.46026 | 23481 ft | 419 kts | 287° |
| 2026-04-21 19:41 | 12.20985 | -69.49016 | 23972 ft | 422 kts | 287° |
| 2026-04-21 19:41 | 12.21834 | -69.51741 | 24385 ft | 425 kts | 287° |
| 2026-04-21 19:41 | 12.22741 | -69.54649 | 24801 ft | 427 kts | 287° |
| 2026-04-21 19:42 | 12.23646 | -69.57556 | 25182 ft | 430 kts | 287° |
| 2026-04-21 19:42 | 12.24555 | -69.60476 | 25515 ft | 433 kts | 287° |
| 2026-04-21 19:42 | 12.25451 | -69.63358 | 25846 ft | 435 kts | 287° |
| 2026-04-21 19:42 | 12.26392 | -69.66396 | 26175 ft | 437 kts | 286° |
| 2026-04-21 19:43 | 12.27246 | -69.69407 | 26484 ft | 439 kts | 284° |
| 2026-04-21 19:43 | 12.28015 | -69.72429 | 26787 ft | 441 kts | 283° |
| 2026-04-21 19:43 | 12.28724 | -69.75488 | 27065 ft | 443 kts | 282° |
| 2026-04-21 19:43 | 12.29432 | -69.78613 | 27365 ft | 445 kts | 282° |
| 2026-04-21 19:44 | 12.30129 | -69.81670 | 27641 ft | 447 kts | 282° |
| 2026-04-21 19:44 | 12.30834 | -69.84715 | 27908 ft | 449 kts | 283° |
| 2026-04-21 19:44 | 12.31582 | -69.87893 | 28263 ft | 448 kts | 283° |
| 2026-04-21 19:44 | 12.32315 | -69.90961 | 28642 ft | 448 kts | 283° |
| 2026-04-21 19:45 | 12.33059 | -69.94073 | 29063 ft | 446 kts | 283° |
| 2026-04-21 19:45 | 12.33799 | -69.97138 | 29429 ft | 446 kts | 283° |
| 2026-04-21 19:45 | 12.34535 | -70.00183 | 29729 ft | 445 kts | 283° |
| 2026-04-21 19:45 | 12.35289 | -70.03300 | 30054 ft | 445 kts | 283° |
| 2026-04-21 19:46 | 12.36032 | -70.06375 | 30376 ft | 444 kts | 283° |
| 2026-04-21 19:46 | 12.36779 | -70.09469 | 30697 ft | 444 kts | 283° |
| 2026-04-21 19:46 | 12.37517 | -70.12530 | 31011 ft | 443 kts | 283° |
| 2026-04-21 19:46 | 12.38255 | -70.15595 | 31320 ft | 442 kts | 283° |
| 2026-04-21 19:47 | 12.38986 | -70.18634 | 31621 ft | 442 kts | 283° |
| 2026-04-21 19:47 | 12.39720 | -70.21694 | 31917 ft | 441 kts | 283° |
| 2026-04-21 19:47 | 12.40231 | -70.24782 | 32178 ft | 441 kts | 275° |
| 2026-04-21 19:47 | 12.40292 | -70.27903 | 32458 ft | 440 kts | 267° |
| 2026-04-21 19:48 | 12.39918 | -70.31061 | 32751 ft | 439 kts | 260° |
| 2026-04-21 19:48 | 12.39219 | -70.34096 | 33034 ft | 439 kts | 255° |
| 2026-04-21 19:48 | 12.38305 | -70.37055 | 33307 ft | 439 kts | 252° |
| 2026-04-21 19:48 | 12.37255 | -70.39999 | 33575 ft | 438 kts | 250° |
| 2026-04-21 19:49 | 12.36143 | -70.42887 | 33835 ft | 438 kts | 249° |
| 2026-04-21 19:49 | 12.35038 | -70.45796 | 33964 ft | 438 kts | 250° |
| 2026-04-21 19:49 | 12.33978 | -70.48710 | 33993 ft | 438 kts | 251° |
| 2026-04-21 19:50 | 12.32284 | -70.53587 | 34001 ft | 438 kts | 252° |
| 2026-04-21 19:50 | 12.29973 | -70.60467 | 34000 ft | 437 kts | 252° |
| 2026-04-21 19:51 | 12.28015 | -70.66366 | 34000 ft | 437 kts | 252° |
| 2026-04-21 19:51 | 12.26069 | -70.72253 | 34000 ft | 437 kts | 252° |
| 2026-04-21 19:52 | 12.24124 | -70.78146 | 34000 ft | 437 kts | 252° |
| 2026-04-21 19:52 | 12.22162 | -70.84069 | 34000 ft | 437 kts | 252° |
| 2026-04-21 19:53 | 12.20121 | -70.89941 | 34000 ft | 438 kts | 251° |
| 2026-04-21 19:53 | 12.18074 | -70.95798 | 34000 ft | 438 kts | 251° |
| 2026-04-21 19:54 | 12.16022 | -71.01672 | 34000 ft | 438 kts | 251° |
| 2026-04-21 19:54 | 12.13960 | -71.07583 | 33999 ft | 439 kts | 251° |
| 2026-04-21 19:55 | 12.11916 | -71.13540 | 34000 ft | 438 kts | 252° |
| 2026-04-21 19:55 | 12.09986 | -71.19431 | 34000 ft | 438 kts | 252° |
| 2026-04-21 19:56 | 12.08054 | -71.25346 | 33999 ft | 438 kts | 252° |
| 2026-04-21 19:56 | 12.06095 | -71.31335 | 33993 ft | 443 kts | 251° |
| 2026-04-21 19:57 | 12.04142 | -71.37295 | 33993 ft | 444 kts | 251° |
| 2026-04-21 19:57 | 12.02175 | -71.43288 | 33991 ft | 446 kts | 251° |
| 2026-04-21 19:58 | 12.00186 | -71.49332 | 33988 ft | 447 kts | 250° |
| 2026-04-21 19:58 | 11.98189 | -71.55385 | 33987 ft | 450 kts | 250° |
| 2026-04-21 19:59 | 11.96187 | -71.61450 | 33988 ft | 450 kts | 250° |
| 2026-04-21 19:59 | 11.94173 | -71.67550 | 33987 ft | 450 kts | 250° |
| 2026-04-21 20:00 | 11.92174 | -71.73603 | 33983 ft | 452 kts | 250° |
| 2026-04-21 20:00 | 11.90150 | -71.79724 | 33983 ft | 456 kts | 249° |
| 2026-04-21 20:01 | 11.88119 | -71.85866 | 33983 ft | 457 kts | 249° |
| 2026-04-21 20:01 | 11.86083 | -71.92018 | 33980 ft | 458 kts | 249° |
| 2026-04-21 20:02 | 11.84369 | -71.97192 | 33976 ft | 463 kts | 249° |
| 2026-04-21 20:02 | 11.82302 | -72.03425 | 33977 ft | 466 kts | 249° |
| 2026-04-21 20:03 | 11.80211 | -72.09726 | 33977 ft | 467 kts | 249° |
| 2026-04-21 20:03 | 11.78123 | -72.16017 | 33976 ft | 468 kts | 249° |
| 2026-04-21 20:04 | 11.76016 | -72.22358 | 33976 ft | 472 kts | 249° |
| 2026-04-21 20:04 | 11.73907 | -72.28696 | 33974 ft | 473 kts | 249° |
| 2026-04-21 20:05 | 11.71790 | -72.35057 | 33972 ft | 473 kts | 249° |
| 2026-04-21 20:05 | 11.69672 | -72.41415 | 33971 ft | 473 kts | 249° |
| 2026-04-21 20:06 | 11.67533 | -72.47813 | 33965 ft | 479 kts | 249° |
| 2026-04-21 20:06 | 11.65371 | -72.54224 | 33964 ft | 478 kts | 249° |
| 2026-04-21 20:07 | 11.63203 | -72.60655 | 33964 ft | 479 kts | 249° |
| 2026-04-21 20:07 | 11.61015 | -72.67161 | 33964 ft | 480 kts | 249° |
| 2026-04-21 20:08 | 11.58849 | -72.73616 | 33964 ft | 480 kts | 249° |
| 2026-04-21 20:08 | 11.56690 | -72.80057 | 33964 ft | 480 kts | 249° |
| 2026-04-21 20:09 | 11.54526 | -72.86507 | 33963 ft | 481 kts | 249° |
| 2026-04-21 20:09 | 11.52331 | -72.92946 | 33963 ft | 481 kts | 248° |
| 2026-04-21 20:10 | 11.49811 | -72.99252 | 33963 ft | 480 kts | 244° |
| 2026-04-21 20:10 | 11.47046 | -73.05424 | 33963 ft | 479 kts | 243° |
| 2026-04-21 20:11 | 11.44307 | -73.11623 | 33964 ft | 479 kts | 244° |
| 2026-04-21 20:11 | 11.41628 | -73.17831 | 33964 ft | 479 kts | 244° |
| 2026-04-21 20:12 | 11.38964 | -73.24052 | 33964 ft | 479 kts | 244° |
| 2026-04-21 20:12 | 11.36308 | -73.30270 | 33964 ft | 479 kts | 244° |
| 2026-04-21 20:13 | 11.33638 | -73.36527 | 33964 ft | 479 kts | 244° |
| 2026-04-21 20:13 | 11.30965 | -73.42791 | 33966 ft | 477 kts | 244° |
| 2026-04-21 20:14 | 11.28306 | -73.49012 | 33964 ft | 477 kts | 244° |
| 2026-04-21 20:14 | 11.25644 | -73.55226 | 33964 ft | 478 kts | 244° |
| 2026-04-21 20:15 | 11.22981 | -73.61434 | 33965 ft | 479 kts | 244° |
| 2026-04-21 20:15 | 11.20314 | -73.67650 | 33963 ft | 479 kts | 244° |
| 2026-04-21 20:16 | 11.17656 | -73.73851 | 33963 ft | 480 kts | 244° |
| 2026-04-21 20:16 | 11.14971 | -73.80136 | 33964 ft | 480 kts | 244° |
| 2026-04-21 20:17 | 11.12323 | -73.86353 | 33963 ft | 478 kts | 244° |
| 2026-04-21 20:17 | 11.09680 | -73.92571 | 33964 ft | 479 kts | 244° |
| 2026-04-21 20:18 | 11.07479 | -73.97752 | 33964 ft | 480 kts | 244° |
| 2026-04-21 20:18 | 11.04377 | -74.05046 | 33963 ft | 480 kts | 244° |
| 2026-04-21 20:19 | 11.01723 | -74.11275 | 33963 ft | 480 kts | 244° |
| 2026-04-21 20:19 | 10.99072 | -74.17489 | 33963 ft | 480 kts | 244° |
| 2026-04-21 20:20 | 10.96421 | -74.23733 | 33961 ft | 480 kts | 246° |
| 2026-04-21 20:20 | 10.94239 | -74.30207 | 33963 ft | 481 kts | 251° |
| 2026-04-21 20:21 | 10.92559 | -74.36766 | 33964 ft | 483 kts | 255° |
| 2026-04-21 20:21 | 10.90968 | -74.43387 | 33963 ft | 483 kts | 253° |
| 2026-04-21 20:22 | 10.89263 | -74.50002 | 33963 ft | 482 kts | 253° |
| 2026-04-21 20:22 | 10.86603 | -74.59953 | 33963 ft | 482 kts | 252° |
| 2026-04-21 20:23 | 10.84839 | -74.66495 | 33963 ft | 482 kts | 252° |
| 2026-04-21 20:23 | 10.83049 | -74.73119 | 33963 ft | 482 kts | 252° |
| 2026-04-21 20:24 | 10.81271 | -74.79683 | 33963 ft | 482 kts | 252° |
| 2026-04-21 20:24 | 10.79490 | -74.86250 | 33963 ft | 482 kts | 252° |
| 2026-04-21 20:25 | 10.77833 | -74.92870 | 33963 ft | 483 kts | 254° |
| 2026-04-21 20:25 | 10.76235 | -74.99494 | 33963 ft | 483 kts | 254° |
| 2026-04-21 20:26 | 10.74895 | -75.05046 | 33963 ft | 483 kts | 254° |
| 2026-04-21 20:26 | 10.73280 | -75.11719 | 33963 ft | 483 kts | 254° |
| 2026-04-21 20:27 | 10.71668 | -75.18350 | 33963 ft | 483 kts | 254° |
| 2026-04-21 20:27 | 10.70042 | -75.25016 | 33963 ft | 483 kts | 254° |
| 2026-04-21 20:28 | 10.68432 | -75.31592 | 33963 ft | 483 kts | 254° |
| 2026-04-21 20:28 | 10.66809 | -75.38212 | 33963 ft | 483 kts | 254° |
| 2026-04-21 20:29 | 10.65183 | -75.44836 | 33963 ft | 482 kts | 254° |
| 2026-04-21 20:29 | 10.63549 | -75.51491 | 33963 ft | 483 kts | 254° |
| 2026-04-21 20:30 | 10.61926 | -75.58101 | 33963 ft | 483 kts | 254° |
| 2026-04-21 20:30 | 10.60299 | -75.64726 | 33963 ft | 483 kts | 254° |
| 2026-04-21 20:31 | 10.58672 | -75.71345 | 33963 ft | 482 kts | 254° |
| 2026-04-21 20:31 | 10.57045 | -75.77960 | 33963 ft | 482 kts | 254° |
| 2026-04-21 20:32 | 10.55425 | -75.84533 | 33963 ft | 482 kts | 254° |
| 2026-04-21 20:32 | 10.53794 | -75.91149 | 33963 ft | 482 kts | 254° |
| 2026-04-21 20:33 | 10.52162 | -75.97760 | 33963 ft | 482 kts | 254° |
| 2026-04-21 20:33 | 10.50529 | -76.04370 | 33963 ft | 482 kts | 254° |
| 2026-04-21 20:34 | 10.48884 | -76.11021 | 33963 ft | 482 kts | 254° |
| 2026-04-21 20:34 | 10.47260 | -76.17585 | 33963 ft | 482 kts | 254° |
| 2026-04-21 20:35 | 10.45621 | -76.24199 | 33963 ft | 482 kts | 254° |
| 2026-04-21 20:35 | 10.43979 | -76.30822 | 33963 ft | 482 kts | 254° |
| 2026-04-21 20:36 | 10.42329 | -76.37468 | 33963 ft | 482 kts | 254° |
| 2026-04-21 20:36 | 10.40685 | -76.44084 | 33963 ft | 482 kts | 254° |
| 2026-04-21 20:37 | 10.39044 | -76.50685 | 33963 ft | 482 kts | 254° |
| 2026-04-21 20:37 | 10.37400 | -76.57287 | 33963 ft | 482 kts | 254° |
| 2026-04-21 20:38 | 10.35753 | -76.63899 | 33963 ft | 482 kts | 253° |
| 2026-04-21 20:38 | 10.34108 | -76.70497 | 33962 ft | 482 kts | 253° |
| 2026-04-21 20:39 | 10.32457 | -76.77111 | 33963 ft | 482 kts | 253° |
| 2026-04-21 20:39 | 10.30809 | -76.83706 | 33964 ft | 482 kts | 253° |
| 2026-04-21 20:40 | 10.29137 | -76.90393 | 33963 ft | 482 kts | 253° |
| 2026-04-21 20:40 | 10.27470 | -76.97053 | 33963 ft | 482 kts | 253° |
| 2026-04-21 20:41 | 10.25819 | -77.03644 | 33963 ft | 482 kts | 253° |
| 2026-04-21 20:41 | 10.24161 | -77.10256 | 33963 ft | 482 kts | 253° |
| 2026-04-21 20:42 | 10.22505 | -77.16851 | 33963 ft | 482 kts | 253° |
| 2026-04-21 20:42 | 10.20850 | -77.23439 | 33963 ft | 482 kts | 253° |
| 2026-04-21 20:43 | 10.19192 | -77.30034 | 33963 ft | 482 kts | 253° |
| 2026-04-21 20:43 | 10.17530 | -77.36641 | 33963 ft | 482 kts | 253° |
| 2026-04-21 20:44 | 10.15681 | -77.43187 | 33964 ft | 482 kts | 248° |
| 2026-04-21 20:44 | 10.13087 | -77.49425 | 33963 ft | 479 kts | 242° |
| 2026-04-21 20:45 | 10.10078 | -77.55459 | 33963 ft | 478 kts | 240° |
| 2026-04-21 20:45 | 10.07061 | -77.61481 | 33963 ft | 479 kts | 242° |
| 2026-04-21 20:46 | 10.04159 | -77.67552 | 33963 ft | 479 kts | 242° |
| 2026-04-21 20:46 | 10.01286 | -77.73675 | 33963 ft | 479 kts | 242° |
| 2026-04-21 20:47 | 9.98416 | -77.79821 | 33963 ft | 479 kts | 243° |
| 2026-04-21 20:47 | 9.95569 | -77.85931 | 33963 ft | 479 kts | 243° |
| 2026-04-21 20:48 | 9.92728 | -77.92030 | 33963 ft | 479 kts | 243° |
| 2026-04-21 20:48 | 9.89878 | -77.98144 | 33963 ft | 479 kts | 243° |
| 2026-04-21 20:49 | 9.87025 | -78.04254 | 33963 ft | 479 kts | 243° |
| 2026-04-21 20:49 | 9.84174 | -78.10353 | 33963 ft | 479 kts | 242° |
| 2026-04-21 20:50 | 9.81311 | -78.16470 | 33963 ft | 479 kts | 243° |
| 2026-04-21 20:50 | 9.78453 | -78.22573 | 33963 ft | 479 kts | 242° |
| 2026-04-21 20:51 | 9.75602 | -78.28659 | 33963 ft | 479 kts | 242° |
| 2026-04-21 20:51 | 9.72738 | -78.34772 | 33963 ft | 479 kts | 242° |
| 2026-04-21 20:52 | 9.70340 | -78.39887 | 33963 ft | 479 kts | 242° |
| 2026-04-21 20:52 | 9.67484 | -78.45975 | 33963 ft | 479 kts | 242° |
| 2026-04-21 20:53 | 9.64618 | -78.52082 | 33963 ft | 479 kts | 242° |
| 2026-04-21 20:53 | 9.61550 | -78.58117 | 33963 ft | 478 kts | 238° |
| 2026-04-21 20:54 | 9.59854 | -78.60961 | 33770 ft | 475 kts | 236° |
| 2026-04-21 20:54 | 9.58045 | -78.63804 | 33112 ft | 475 kts | 234° |
| 2026-04-21 20:54 | 9.56180 | -78.66573 | 32354 ft | 479 kts | 233° |
| 2026-04-21 20:54 | 9.54287 | -78.69366 | 31557 ft | 483 kts | 234° |
| 2026-04-21 20:55 | 9.52395 | -78.72203 | 30780 ft | 487 kts | 235° |
| 2026-04-21 20:55 | 9.50474 | -78.75144 | 30010 ft | 489 kts | 236° |
| 2026-04-21 20:55 | 9.48582 | -78.78075 | 29267 ft | 491 kts | 237° |
| 2026-04-21 20:55 | 9.46717 | -78.80984 | 28530 ft | 492 kts | 237° |
| 2026-04-21 20:56 | 9.44863 | -78.83887 | 27810 ft | 493 kts | 237° |
| 2026-04-21 20:56 | 9.42994 | -78.86815 | 27104 ft | 493 kts | 237° |
| 2026-04-21 20:56 | 9.41142 | -78.89719 | 26485 ft | 490 kts | 237° |
| 2026-04-21 20:56 | 9.39305 | -78.92603 | 25887 ft | 487 kts | 238° |
| 2026-04-21 20:57 | 9.37441 | -78.95528 | 25284 ft | 484 kts | 238° |
| 2026-04-21 20:57 | 9.35632 | -78.98369 | 24694 ft | 480 kts | 237° |
| 2026-04-21 20:57 | 9.33826 | -79.01207 | 24113 ft | 492 kts | 237° |
| 2026-04-21 20:57 | 9.31940 | -79.04171 | 24124 ft | 494 kts | 237° |
| 2026-04-21 20:58 | 9.30101 | -79.07061 | 24063 ft | 482 kts | 237° |
| 2026-04-21 20:58 | 9.28304 | -79.09882 | 23756 ft | 472 kts | 237° |
| 2026-04-21 20:58 | 9.26406 | -79.12533 | 23251 ft | 455 kts | 231° |
| 2026-04-21 20:58 | 9.24175 | -79.14947 | 22715 ft | 436 kts | 223° |
| 2026-04-21 20:59 | 9.21939 | -79.16876 | 22217 ft | 425 kts | 217° |
| 2026-04-21 20:59 | 9.19547 | -79.18617 | 21717 ft | 419 kts | 213° |
| 2026-04-21 20:59 | 9.17124 | -79.20197 | 21217 ft | 412 kts | 211° |
| 2026-04-21 20:59 | 9.14656 | -79.21705 | 20710 ft | 405 kts | 209° |
| 2026-04-21 21:00 | 9.12281 | -79.23073 | 20207 ft | 389 kts | 208° |
| 2026-04-21 21:00 | 9.09953 | -79.24404 | 19691 ft | 371 kts | 208° |
| 2026-04-21 21:00 | 9.07754 | -79.25663 | 19183 ft | 355 kts | 208° |
| 2026-04-21 21:00 | 9.05683 | -79.26854 | 18682 ft | 339 kts | 209° |
| 2026-04-21 21:01 | 9.03928 | -79.27867 | 18238 ft | 327 kts | 209° |
| 2026-04-21 21:01 | 9.01893 | -79.29045 | 17711 ft | 320 kts | 209° |
| 2026-04-21 21:01 | 8.99915 | -79.30193 | 17199 ft | 318 kts | 209° |
| 2026-04-21 21:01 | 8.98038 | -79.31285 | 16709 ft | 315 kts | 209° |
| 2026-04-21 21:02 | 8.96168 | -79.32374 | 16216 ft | 313 kts | 209° |
| 2026-04-21 21:02 | 8.94255 | -79.33490 | 15708 ft | 310 kts | 210° |
| 2026-04-21 21:02 | 8.92406 | -79.34571 | 15093 ft | 308 kts | 210° |
| 2026-04-21 21:02 | 8.90774 | -79.35960 | 14295 ft | 304 kts | 231° |
| 2026-04-21 21:03 | 8.89709 | -79.37763 | 13593 ft | 299 kts | 241° |
| 2026-04-21 21:03 | 8.88584 | -79.39527 | 12851 ft | 297 kts | 233° |
| 2026-04-21 21:03 | 8.87218 | -79.41116 | 12096 ft | 294 kts | 225° |
| 2026-04-21 21:03 | 8.85683 | -79.42456 | 11353 ft | 291 kts | 217° |
| 2026-04-21 21:04 | 8.84009 | -79.43595 | 10611 ft | 289 kts | 211° |
| 2026-04-21 21:04 | 8.82215 | -79.44502 | 9864 ft | 288 kts | 203° |
| 2026-04-21 21:04 | 8.80315 | -79.45137 | 9116 ft | 286 kts | 194° |
| 2026-04-21 21:04 | 8.78365 | -79.45486 | 8373 ft | 285 kts | 186° |
| 2026-04-21 21:05 | 8.76393 | -79.45577 | 7633 ft | 284 kts | 181° |
| 2026-04-21 21:05 | 8.74432 | -79.45793 | 6885 ft | 283 kts | 189° |
| 2026-04-21 21:05 | 8.72526 | -79.46294 | 6139 ft | 283 kts | 197° |
| 2026-04-21 21:05 | 8.70730 | -79.47117 | 5364 ft | 283 kts | 213° |
| 2026-04-21 21:06 | 8.69430 | -79.48582 | 4613 ft | 282 kts | 240° |
| 2026-04-21 21:06 | 8.68991 | -79.50460 | 4100 ft | 270 kts | 269° |
| 2026-04-21 21:06 | 8.69472 | -79.52215 | 3593 ft | 255 kts | 300° |
| 2026-04-21 21:06 | 8.70685 | -79.53415 | 3087 ft | 239 kts | 332° |
| 2026-04-21 21:07 | 8.72223 | -79.53723 | 3002 ft | 221 kts | 3° |
| 2026-04-21 21:07 | 8.73734 | -79.53565 | 3002 ft | 212 kts | 11° |
| 2026-04-21 21:07 | 8.75137 | -79.53348 | 2956 ft | 196 kts | 13° |
| 2026-04-21 21:07 | 8.76427 | -79.53094 | 2930 ft | 184 kts | 15° |
| 2026-04-21 21:08 | 8.77667 | -79.52837 | 2931 ft | 182 kts | 15° |
| 2026-04-21 21:08 | 8.78907 | -79.52575 | 2941 ft | 182 kts | 15° |
| 2026-04-21 21:08 | 8.80138 | -79.52313 | 2947 ft | 182 kts | 15° |
| 2026-04-21 21:08 | 8.81374 | -79.52040 | 2952 ft | 182 kts | 16° |
| 2026-04-21 21:09 | 8.82604 | -79.51759 | 2961 ft | 181 kts | 16° |
| 2026-04-21 21:09 | 8.83773 | -79.51489 | 3035 ft | 182 kts | 16° |
| 2026-04-21 21:09 | 8.85005 | -79.51205 | 3026 ft | 182 kts | 16° |
| 2026-04-21 21:09 | 8.86230 | -79.50908 | 2937 ft | 180 kts | 19° |
| 2026-04-21 21:10 | 8.87393 | -79.50465 | 2941 ft | 179 kts | 25° |
| 2026-04-21 21:10 | 8.88561 | -79.49975 | 2949 ft | 179 kts | 26° |
| 2026-04-21 21:10 | 8.89711 | -79.49485 | 2953 ft | 179 kts | 26° |
| 2026-04-21 21:10 | 8.90467 | -79.49158 | 2955 ft | 179 kts | 27° |
| 2026-04-21 21:11 | 8.91599 | -79.48627 | 2987 ft | 178 kts | 29° |
| 2026-04-21 21:11 | 8.92709 | -79.48033 | 2962 ft | 178 kts | 32° |
| 2026-04-21 21:11 | 8.93775 | -79.47425 | 2773 ft | 175 kts | 33° |
| 2026-04-21 21:11 | 8.94831 | -79.46824 | 2547 ft | 175 kts | 33° |
| 2026-04-21 21:12 | 8.95914 | -79.46217 | 2322 ft | 178 kts | 33° |
| 2026-04-21 21:12 | 8.96984 | -79.45624 | 2102 ft | 177 kts | 32° |
| 2026-04-21 21:12 | 8.98027 | -79.44988 | 1866 ft | 169 kts | 37° |
| 2026-04-21 21:12 | 8.98926 | -79.44358 | 1658 ft | 143 kts | 40° |
| 2026-04-21 21:13 | 8.99636 | -79.43737 | 1415 ft | 128 kts | 48° |
| 2026-04-21 21:13 | 9.00151 | -79.43083 | 1237 ft | 115 kts | 55° |
| 2026-04-21 21:13 | 9.00730 | -79.42507 | 1041 ft | 118 kts | 45° |
| 2026-04-21 21:13 | 9.01498 | -79.42065 | 1137 ft | 134 kts | 34° |
| 2026-04-21 21:14 | 9.02346 | -79.41595 | 1374 ft | 144 kts | 32° |
| 2026-04-21 21:14 | 9.03277 | -79.41116 | 1242 ft | 155 kts | 33° |
| 2026-04-21 21:14 | 9.04233 | -79.40589 | 1001 ft | 156 kts | 33° |
| 2026-04-21 21:14 | 9.05156 | -79.40034 | 760 ft | 153 kts | 34° |
| 2026-04-21 21:15 | 9.06058 | -79.39494 | 502 ft | 148 kts | 34° |
| 2026-04-21 21:15 | 9.06890 | -79.38987 | 286 ft | 132 kts | 35° |
| 2026-04-21 21:15 | 9.07606 | -79.38545 | 150 ft | 106 kts | 36° |
| 2026-04-21 21:15 | 9.08069 | -79.38265 | 146 ft | 44 kts | 32° |
| 2026-04-21 21:16 | 9.08234 | -79.38154 | 146 ft | 24 kts | 31° |
| 2026-04-21 21:16 | 9.08291 | -79.38101 | 146 ft | 7 kts | 78° |
| 2026-04-21 21:16 | 9.08283 | -79.38056 | 146 ft | 6 kts | 112° |
| 2026-04-21 21:16 | 9.08264 | -79.38019 | 146 ft | 6 kts | 122° |
| 2026-04-21 21:17 | 9.08207 | -79.37995 | 146 ft | 13 kts | 199° |
| 2026-04-21 21:17 | 9.08136 | -79.38036 | 146 ft | 12 kts | 212° |
| 2026-04-21 21:17 | 9.08064 | -79.38081 | 146 ft | 12 kts | 211° |
| 2026-04-21 21:17 | 9.07994 | -79.38124 | 146 ft | 12 kts | 212° |
| 2026-04-21 21:18 | 9.07924 | -79.38169 | 146 ft | 12 kts | 212° |
| 2026-04-21 21:18 | 9.07849 | -79.38214 | 146 ft | 13 kts | 211° |
| 2026-04-21 21:18 | 9.07773 | -79.38261 | 146 ft | 13 kts | 211° |
| 2026-04-21 21:18 | 9.07692 | -79.38309 | 146 ft | 13 kts | 210° |
| 2026-04-21 21:19 | 9.07619 | -79.38352 | 146 ft | 11 kts | 210° |
| 2026-04-21 21:19 | 9.07559 | -79.38387 | 146 ft | 10 kts | 210° |
| 2026-04-21 21:19 | 9.07478 | -79.38436 | 146 ft | 18 kts | 211° |
| 2026-04-21 21:19 | 9.07362 | -79.38505 | 146 ft | 18 kts | 211° |
| 2026-04-21 21:20 | 9.07266 | -79.38564 | 146 ft | 14 kts | 207° |
| 2026-04-21 21:20 | 9.07195 | -79.38565 | 146 ft | 8 kts | 154° |
| 2026-04-21 21:20 | 9.07170 | -79.38551 | 146 ft | 0 kts | 149° |